createdAt,value
2024-05-09T00:00:39.176Z,2.21
2024-05-09T00:01:35.275Z,2.21
2024-05-09T00:02:34.265Z,2.21
2024-05-09T00:03:34.363Z,2.19
2024-05-09T00:04:34.285Z,2.21
2024-05-09T00:05:34.555Z,2.23
2024-05-09T00:06:34.309Z,2.27
2024-05-09T00:07:34.410Z,2.19
2024-05-09T00:08:34.418Z,2.18
2024-05-09T00:09:34.386Z,2.16
2024-05-09T00:10:37.448Z,2.15
2024-05-09T00:11:34.593Z,2.15
2024-05-09T00:12:34.466Z,2.15
2024-05-09T00:13:34.484Z,2.15
2024-05-09T00:14:34.552Z,2.18
2024-05-09T00:15:35.111Z,2.17
2024-05-09T00:16:34.563Z,2.16
2024-05-09T00:17:34.660Z,2.13
2024-05-09T00:18:34.676Z,2.13
2024-05-09T00:19:34.664Z,2.12
2024-05-09T00:20:38.794Z,2.13
2024-05-09T00:21:35.699Z,2.13
2024-05-09T00:22:34.710Z,2.13
2024-05-09T00:23:34.767Z,2.13
2024-05-09T00:24:34.763Z,2.12
2024-05-09T00:25:35.302Z,2.14
2024-05-09T00:26:34.884Z,2.11
2024-05-09T00:27:34.857Z,2.09
2024-05-09T00:28:34.855Z,2.11
2024-05-09T00:29:34.909Z,2.12
2024-05-09T00:30:36.753Z,2.10
2024-05-09T00:31:35.069Z,2.08
2024-05-09T00:32:35.263Z,2.05
2024-05-09T00:33:35.268Z,2.08
2024-05-09T00:34:35.195Z,2.08
2024-05-09T00:35:35.384Z,2.06
2024-05-09T00:36:35.231Z,2.05
2024-05-09T00:37:35.249Z,2.02
2024-05-09T00:38:35.454Z,2.07
2024-05-09T00:39:35.321Z,2.07
2024-05-09T00:40:39.604Z,2.07
2024-05-09T00:41:36.438Z,2.07
2024-05-09T00:42:35.399Z,2.07
2024-05-09T00:43:35.414Z,2.07
2024-05-09T00:44:35.566Z,2.09
2024-05-09T00:45:35.503Z,2.10
2024-05-09T00:46:35.499Z,2.03
2024-05-09T00:47:35.599Z,2.04
2024-05-09T00:48:35.661Z,2.02
2024-05-09T00:49:35.693Z,2.02
2024-05-09T00:50:37.365Z,2.02
2024-05-09T00:51:35.716Z,2.03
2024-05-09T00:52:35.795Z,2.04
2024-05-09T00:53:35.939Z,2.05
2024-05-09T00:54:35.956Z,2.01
2024-05-09T00:55:36.009Z,2.02
2024-05-09T00:56:36.062Z,2.02
2024-05-09T00:57:36.057Z,2.00
2024-05-09T00:58:36.100Z,2.02
2024-05-09T00:59:36.213Z,1.98
2024-05-09T01:00:39.798Z,1.99
2024-05-09T01:01:37.244Z,1.97
2024-05-09T01:02:36.266Z,1.98
2024-05-09T01:03:36.361Z,1.98
2024-05-09T01:04:36.323Z,1.99
2024-05-09T01:05:36.310Z,1.96
2024-05-09T01:06:36.327Z,1.98
2024-05-09T01:07:36.334Z,1.97
2024-05-09T01:08:36.499Z,1.95
2024-05-09T01:09:36.377Z,1.96
2024-05-09T01:10:36.833Z,1.95
2024-05-09T01:11:36.597Z,1.93
2024-05-09T01:12:36.523Z,1.94
2024-05-09T01:13:36.467Z,1.93
2024-05-09T01:14:36.571Z,1.91
2024-05-09T01:15:36.530Z,1.94
2024-05-09T01:16:36.554Z,1.90
2024-05-09T01:17:36.729Z,1.92
2024-05-09T01:18:36.668Z,1.96
2024-05-09T01:19:36.732Z,1.93
2024-05-09T01:20:41.760Z,1.87
2024-05-09T01:21:37.687Z,1.87
2024-05-09T01:22:36.692Z,1.87
2024-05-09T01:23:36.796Z,1.88
2024-05-09T01:24:36.742Z,1.90
2024-05-09T01:25:36.781Z,1.88
2024-05-09T01:26:36.813Z,1.90
2024-05-09T01:27:36.805Z,1.87
2024-05-09T01:28:36.837Z,1.87
2024-05-09T01:29:36.893Z,1.87
2024-05-09T01:30:37.873Z,1.86
2024-05-09T01:31:36.937Z,1.86
2024-05-09T01:32:37.026Z,1.83
2024-05-09T01:33:37.365Z,1.85
2024-05-09T01:34:36.977Z,1.82
2024-05-09T01:35:37.148Z,1.82
2024-05-09T01:36:37.038Z,1.82
2024-05-09T01:37:37.033Z,1.84
2024-05-09T01:38:37.219Z,1.82
2024-05-09T01:39:37.074Z,1.81
2024-05-09T01:40:39.748Z,1.79
2024-05-09T01:41:37.144Z,1.81
2024-05-09T01:42:37.160Z,1.79
2024-05-09T01:43:37.200Z,1.79
2024-05-09T01:44:37.244Z,1.78
2024-05-09T01:45:37.230Z,1.78
2024-05-09T01:46:37.252Z,1.78
2024-05-09T01:47:37.451Z,1.77
2024-05-09T01:48:37.371Z,1.76
2024-05-09T01:49:37.392Z,1.74
2024-05-09T01:50:40.916Z,1.78
2024-05-09T01:51:38.365Z,1.78
2024-05-09T01:52:37.400Z,1.79
2024-05-09T01:53:37.555Z,1.78
2024-05-09T01:54:37.455Z,1.79
2024-05-09T01:55:37.524Z,1.77
2024-05-09T01:56:37.546Z,1.79
2024-05-09T01:57:37.523Z,1.79
2024-05-09T01:58:37.564Z,1.77
2024-05-09T01:59:37.613Z,1.79
2024-05-09T02:00:41.266Z,1.76
2024-05-09T02:01:55.818Z,1.76
2024-05-09T02:02:38.761Z,1.76
2024-05-09T02:03:37.827Z,1.77
2024-05-09T02:04:37.851Z,1.79
2024-05-09T02:05:37.882Z,1.79
2024-05-09T02:06:37.749Z,1.76
2024-05-09T02:07:37.771Z,1.77
2024-05-09T02:08:37.915Z,1.80
2024-05-09T02:09:37.816Z,1.79
2024-05-09T02:10:37.841Z,1.80
2024-05-09T02:11:37.976Z,1.81
2024-05-09T02:12:37.893Z,1.76
2024-05-09T02:13:37.910Z,1.76
2024-05-09T02:14:37.960Z,1.74
2024-05-09T02:15:37.949Z,1.75
2024-05-09T02:16:37.967Z,1.74
2024-05-09T02:17:38.226Z,1.74
2024-05-09T02:18:38.139Z,1.77
2024-05-09T02:19:38.072Z,1.70
2024-05-09T02:20:38.123Z,1.70
2024-05-09T02:21:38.081Z,1.71
2024-05-09T02:22:38.128Z,1.72
2024-05-09T02:23:38.285Z,1.72
2024-05-09T02:24:38.156Z,1.70
2024-05-09T02:25:38.206Z,1.70
2024-05-09T02:26:38.237Z,1.71
2024-05-09T02:27:38.214Z,1.71
2024-05-09T02:28:38.226Z,1.71
2024-05-09T02:29:38.334Z,1.71
2024-05-09T02:30:41.211Z,1.71
2024-05-09T02:31:38.296Z,1.71
2024-05-09T02:32:38.445Z,1.71
2024-05-09T02:33:38.523Z,1.71
2024-05-09T02:34:38.541Z,1.72
2024-05-09T02:35:38.448Z,1.70
2024-05-09T02:36:38.378Z,1.67
2024-05-09T02:37:38.407Z,1.69
2024-05-09T02:38:38.433Z,1.66
2024-05-09T02:39:38.473Z,1.69
2024-05-09T02:40:39.777Z,1.71
2024-05-09T02:41:38.510Z,1.70
2024-05-09T02:42:38.493Z,1.68
2024-05-09T02:43:38.512Z,1.65
2024-05-09T02:44:38.583Z,1.67
2024-05-09T02:45:38.540Z,1.68
2024-05-09T02:46:38.562Z,1.63
2024-05-09T02:47:38.737Z,1.70
2024-05-09T02:48:38.793Z,1.64
2024-05-09T02:49:38.868Z,1.64
2024-05-09T02:50:40.024Z,1.62
2024-05-09T02:51:38.651Z,1.62
2024-05-09T02:52:38.689Z,1.63
2024-05-09T02:53:38.732Z,1.63
2024-05-09T02:54:38.722Z,1.64
2024-05-09T02:55:38.875Z,1.64
2024-05-09T02:56:38.791Z,1.65
2024-05-09T02:57:38.810Z,1.63
2024-05-09T02:58:38.806Z,1.60
2024-05-09T02:59:38.820Z,1.61
2024-05-09T03:00:41.480Z,1.61
2024-05-09T03:01:38.973Z,1.61
2024-05-09T03:02:38.956Z,1.61
2024-05-09T03:03:39.021Z,1.61
2024-05-09T03:04:38.934Z,1.64
2024-05-09T03:05:39.065Z,1.58
2024-05-09T03:06:38.936Z,1.63
2024-05-09T03:07:38.973Z,1.59
2024-05-09T03:08:39.016Z,1.60
2024-05-09T03:09:38.996Z,1.60
2024-05-09T03:10:39.715Z,1.61
2024-05-09T03:11:39.081Z,1.61
2024-05-09T03:12:39.393Z,1.61
2024-05-09T03:13:39.077Z,1.56
2024-05-09T03:14:39.160Z,1.60
2024-05-09T03:15:39.108Z,1.60
2024-05-09T03:16:39.131Z,1.60
2024-05-09T03:17:39.350Z,1.59
2024-05-09T03:18:39.257Z,1.59
2024-05-09T03:19:39.235Z,1.58
2024-05-09T03:20:39.653Z,1.59
2024-05-09T03:21:39.240Z,1.58
2024-05-09T03:22:39.264Z,1.55
2024-05-09T03:23:39.457Z,1.56
2024-05-09T03:24:39.303Z,1.56
2024-05-09T03:25:39.341Z,1.55
2024-05-09T03:26:39.429Z,1.54
2024-05-09T03:27:39.397Z,1.56
2024-05-09T03:28:39.409Z,1.51
2024-05-09T03:29:39.452Z,1.54
2024-05-09T03:30:42.440Z,1.55
2024-05-09T03:31:39.517Z,1.55
2024-05-09T03:32:39.631Z,1.51
2024-05-09T03:33:39.749Z,1.52
2024-05-09T03:34:39.542Z,1.53
2024-05-09T03:35:39.596Z,1.54
2024-05-09T03:36:39.591Z,1.51
2024-05-09T03:37:39.620Z,1.52
2024-05-09T03:38:39.749Z,1.49
2024-05-09T03:39:39.673Z,1.50
2024-05-09T03:40:39.698Z,1.50
2024-05-09T03:41:39.762Z,1.51
2024-05-09T03:42:39.734Z,1.52
2024-05-09T03:43:39.751Z,1.51
2024-05-09T03:44:39.907Z,1.50
2024-05-09T03:45:39.800Z,1.52
2024-05-09T03:46:39.819Z,1.49
2024-05-09T03:47:40.020Z,1.52
2024-05-09T03:48:39.921Z,1.50
2024-05-09T03:49:39.952Z,1.48
2024-05-09T03:50:39.991Z,1.49
2024-05-09T03:51:39.979Z,1.49
2024-05-09T03:52:39.978Z,1.49
2024-05-09T03:53:40.212Z,1.49
2024-05-09T03:54:40.004Z,1.48
2024-05-09T03:55:40.023Z,1.49
2024-05-09T03:56:40.119Z,1.47
2024-05-09T03:57:40.089Z,1.48
2024-05-09T03:58:40.095Z,1.49
2024-05-09T03:59:40.214Z,1.47
2024-05-09T04:00:40.544Z,1.48
2024-05-09T04:01:40.274Z,1.47
2024-05-09T04:02:40.276Z,1.47
2024-05-09T04:03:40.375Z,1.47
2024-05-09T04:04:40.300Z,1.46
2024-05-09T04:05:41.318Z,1.45
2024-05-09T04:06:40.289Z,1.46
2024-05-09T04:07:40.316Z,1.47
2024-05-09T04:08:40.487Z,1.47
2024-05-09T04:09:40.369Z,1.44
2024-05-09T04:10:40.441Z,1.46
2024-05-09T04:11:40.548Z,1.47
2024-05-09T04:12:40.454Z,1.45
2024-05-09T04:13:40.455Z,1.46
2024-05-09T04:14:40.486Z,1.46
2024-05-09T04:15:40.478Z,1.46
2024-05-09T04:16:40.509Z,1.47
2024-05-09T04:17:40.744Z,1.46
2024-05-09T04:18:40.651Z,1.45
2024-05-09T04:19:40.589Z,1.44
2024-05-09T04:20:41.406Z,1.43
2024-05-09T04:21:40.629Z,1.45
2024-05-09T04:22:40.627Z,1.42
2024-05-09T04:23:47.953Z,0.50
2024-05-09T04:24:47.846Z,0.50
2024-05-09T04:25:47.897Z,0.50
2024-05-09T04:26:47.872Z,0.50
2024-05-09T04:27:47.879Z,0.50
2024-05-09T04:28:47.894Z,0.50
2024-05-09T04:29:47.887Z,0.51
2024-05-09T04:30:47.912Z,0.51
2024-05-09T04:31:55.248Z,0.50
2024-05-09T04:32:55.224Z,0.50
2024-05-09T04:33:55.282Z,0.50
2024-05-09T04:34:55.209Z,0.50
2024-05-09T04:35:55.162Z,0.50
2024-05-09T04:36:55.187Z,0.51
2024-05-09T04:37:55.226Z,0.50
2024-05-09T04:38:55.185Z,0.51
2024-05-09T04:39:55.194Z,0.50
2024-05-09T04:40:55.328Z,0.50
2024-05-09T04:41:55.212Z,0.50
2024-05-09T04:42:55.223Z,0.50
2024-05-09T04:43:55.249Z,0.51
2024-05-09T04:44:58.281Z,0.51
2024-05-09T04:45:55.239Z,0.51
2024-05-09T04:46:55.280Z,0.50
2024-05-09T04:47:55.584Z,0.50
2024-05-09T04:48:55.353Z,0.51
2024-05-09T04:49:55.321Z,0.50
2024-05-09T04:50:55.382Z,0.52
2024-05-09T04:51:55.325Z,0.51
2024-05-09T04:52:55.378Z,0.51
2024-05-09T04:53:55.356Z,0.51
2024-05-09T04:54:56.915Z,0.51
2024-05-09T04:55:55.416Z,0.51
2024-05-09T04:56:55.399Z,0.50
2024-05-09T04:57:55.408Z,0.50
2024-05-09T04:58:55.440Z,0.50
2024-05-09T04:59:55.416Z,0.50
2024-05-09T05:00:55.480Z,0.51
2024-05-09T05:01:55.559Z,0.52
2024-05-09T05:02:55.570Z,0.50
2024-05-09T05:03:56.142Z,0.51
2024-05-09T05:04:55.584Z,0.52
2024-05-09T05:05:55.578Z,0.52
2024-05-09T05:06:56.367Z,0.52
2024-05-09T05:07:55.530Z,0.51
2024-05-09T05:08:55.507Z,0.51
2024-05-09T05:09:55.525Z,0.52
2024-05-09T05:10:55.718Z,0.52
2024-05-09T05:11:55.786Z,0.51
2024-05-09T05:12:55.566Z,0.51
2024-05-09T05:13:55.613Z,0.52
2024-05-09T05:14:55.579Z,0.50
2024-05-09T05:15:56.254Z,0.51
2024-05-09T05:16:55.628Z,0.51
2024-05-09T05:17:55.804Z,0.50
2024-05-09T05:18:55.689Z,0.50
2024-05-09T05:19:55.774Z,0.51
2024-05-09T05:20:55.810Z,0.50
2024-05-09T05:21:55.677Z,0.52
2024-05-09T05:22:55.734Z,0.50
2024-05-09T05:23:55.680Z,0.52
2024-05-09T05:24:55.690Z,0.51
2024-05-09T05:25:55.972Z,0.51
2024-05-09T05:26:55.713Z,0.51
2024-05-09T05:27:55.730Z,0.51
2024-05-09T05:28:55.856Z,0.52
2024-05-09T05:29:55.734Z,0.52
2024-05-09T05:30:55.745Z,0.52
2024-05-09T05:31:55.868Z,0.51
2024-05-09T05:32:56.025Z,0.51
2024-05-09T05:33:55.937Z,0.50
2024-05-09T05:34:55.827Z,0.52
2024-05-09T05:35:55.802Z,0.51
2024-05-09T05:36:55.819Z,0.50
2024-05-09T05:37:55.983Z,0.53
2024-05-09T05:38:55.930Z,0.50
2024-05-09T05:39:55.944Z,0.51
2024-05-09T05:40:56.172Z,0.51
2024-05-09T05:41:56.043Z,0.51
2024-05-09T05:42:56.097Z,0.52
2024-05-09T05:43:56.185Z,0.50
2024-05-09T05:44:56.185Z,0.52
2024-05-09T05:45:56.246Z,0.50
2024-05-09T05:46:56.303Z,0.51
2024-05-09T05:47:56.668Z,0.51
2024-05-09T05:48:56.560Z,0.52
2024-05-09T05:49:56.503Z,0.51
2024-05-09T05:50:56.521Z,0.51
2024-05-09T05:51:56.532Z,0.52
2024-05-09T05:52:56.588Z,0.51
2024-05-09T05:53:56.633Z,0.51
2024-05-09T05:54:56.658Z,0.51
2024-05-09T05:55:56.810Z,0.51
2024-05-09T05:56:56.745Z,0.50
2024-05-09T05:57:56.838Z,0.51
2024-05-09T05:58:56.918Z,0.52
2024-05-09T05:59:56.877Z,0.52
2024-05-09T06:00:56.949Z,0.52
2024-05-09T06:01:56.997Z,0.52
2024-05-09T06:02:57.090Z,0.53
2024-05-09T06:03:57.277Z,0.52
2024-05-09T06:04:57.204Z,0.52
2024-05-09T06:05:57.364Z,0.51
2024-05-09T06:06:57.185Z,0.51
2024-05-09T06:07:57.253Z,0.51
2024-05-09T06:08:57.319Z,0.51
2024-05-09T06:09:57.317Z,0.51
2024-05-09T06:10:57.425Z,0.51
2024-05-09T06:11:57.481Z,0.51
2024-05-09T06:12:57.442Z,0.51
2024-05-09T06:13:57.519Z,0.53
2024-05-09T06:14:57.524Z,0.51
2024-05-09T06:15:57.563Z,0.52
2024-05-09T06:16:58.316Z,0.51
2024-05-09T06:17:57.929Z,0.51
2024-05-09T06:18:57.823Z,0.50
2024-05-09T06:19:57.773Z,0.52
2024-05-09T06:20:57.824Z,0.52
2024-05-09T06:21:57.818Z,0.51
2024-05-09T06:22:57.903Z,0.52
2024-05-09T06:23:57.904Z,0.51
2024-05-09T06:24:57.972Z,0.51
2024-05-09T06:25:58.029Z,0.51
2024-05-09T06:26:58.018Z,0.50
2024-05-09T06:27:58.080Z,0.51
2024-05-09T06:28:58.161Z,0.51
2024-05-09T06:29:58.110Z,0.51
2024-05-09T06:30:58.122Z,0.51
2024-05-09T06:32:00.102Z,0.52
2024-05-09T06:32:58.239Z,0.52
2024-05-09T06:33:58.391Z,0.51
2024-05-09T06:34:58.218Z,0.52
2024-05-09T06:35:58.180Z,0.51
2024-05-09T06:36:58.207Z,0.51
2024-05-09T06:37:58.266Z,0.51
2024-05-09T06:38:58.230Z,0.50
2024-05-09T06:39:58.239Z,0.50
2024-05-09T06:40:58.398Z,0.50
2024-05-09T06:41:58.290Z,0.50
2024-05-09T06:42:58.311Z,0.50
2024-05-09T06:43:58.364Z,0.50
2024-05-09T06:44:58.334Z,0.51
2024-05-09T06:45:58.366Z,0.50
2024-05-09T06:46:59.916Z,0.50
2024-05-09T06:47:58.537Z,0.51
2024-05-09T06:48:58.548Z,0.51
2024-05-09T06:49:58.404Z,0.51
2024-05-09T06:50:58.444Z,0.51
2024-05-09T06:51:58.421Z,0.51
2024-05-09T06:52:58.482Z,0.51
2024-05-09T06:53:58.405Z,0.51
2024-05-09T06:54:58.425Z,0.51
2024-05-09T06:55:58.465Z,0.50
2024-05-09T06:56:58.461Z,0.50
2024-05-09T06:57:58.493Z,0.50
2024-05-09T06:58:58.504Z,0.51
2024-05-09T06:59:58.484Z,0.51
2024-05-09T07:00:58.479Z,0.50
2024-05-09T07:01:58.546Z,0.50
2024-05-09T07:03:00.130Z,0.51
2024-05-09T07:03:58.567Z,0.51
2024-05-09T07:04:58.664Z,0.51
2024-05-09T07:05:58.551Z,0.51
2024-05-09T07:06:58.508Z,0.50
2024-05-09T07:07:58.518Z,0.51
2024-05-09T07:08:58.562Z,0.52
2024-05-09T07:09:58.528Z,0.52
2024-05-09T07:10:58.621Z,0.51
2024-05-09T07:11:58.613Z,0.51
2024-05-09T07:12:58.574Z,0.51
2024-05-09T07:13:58.635Z,0.52
2024-05-09T07:14:58.556Z,0.51
2024-05-09T07:15:58.606Z,0.51
2024-05-09T07:16:58.736Z,0.51
2024-05-09T07:17:58.694Z,0.51
2024-05-09T07:18:58.718Z,0.51
2024-05-09T07:19:58.810Z,0.51
2024-05-09T07:20:58.625Z,0.51
2024-05-09T07:21:58.591Z,0.51
2024-05-09T07:22:58.673Z,0.51
2024-05-09T07:23:58.594Z,0.52
2024-05-09T07:24:58.611Z,0.51
2024-05-09T07:25:58.686Z,0.50
2024-05-09T07:26:58.615Z,0.50
2024-05-09T07:27:58.635Z,0.52
2024-05-09T07:28:58.695Z,0.52
2024-05-09T07:29:58.613Z,0.51
2024-05-09T07:30:58.641Z,0.52
2024-05-09T07:31:58.676Z,0.51
2024-05-09T07:32:58.917Z,0.51
2024-05-09T07:33:58.668Z,0.51
2024-05-09T07:34:58.658Z,0.52
2024-05-09T07:35:58.899Z,0.50
2024-05-09T07:36:58.650Z,0.52
2024-05-09T07:37:58.822Z,0.52
2024-05-09T07:38:58.699Z,0.51
2024-05-09T07:39:58.675Z,0.52
2024-05-09T07:40:58.733Z,0.52
2024-05-09T07:41:58.706Z,0.52
2024-05-09T07:42:58.714Z,0.51
2024-05-09T07:43:58.725Z,0.51
2024-05-09T07:45:14.772Z,0.52
2024-05-09T07:46:23.028Z,0.52
2024-05-09T07:49:44.366Z,0.52
2024-05-09T07:51:47.682Z,0.52
2024-05-09T07:53:22.105Z,0.52
2024-05-09T07:54:00.940Z,0.52
2024-05-09T07:54:58.978Z,0.52
2024-05-09T07:55:58.920Z,0.53
2024-05-09T07:56:58.867Z,0.53
2024-05-09T07:57:58.777Z,0.54
2024-05-09T07:58:58.789Z,0.55
2024-05-09T07:59:58.778Z,0.55
2024-05-09T08:00:58.864Z,0.53
2024-05-09T08:01:58.904Z,0.52
2024-05-09T08:02:58.817Z,0.53
2024-05-09T08:03:59.032Z,0.52
2024-05-09T08:04:58.897Z,0.51
2024-05-09T08:05:58.835Z,0.52
2024-05-09T08:06:58.854Z,0.51
2024-05-09T08:07:58.875Z,0.51
2024-05-09T08:09:02.999Z,0.51
2024-05-09T08:09:59.914Z,0.52
2024-05-09T08:10:58.883Z,0.52
2024-05-09T08:11:58.938Z,0.52
2024-05-09T08:12:58.927Z,0.52
2024-05-09T08:13:58.894Z,0.52
2024-05-09T08:14:58.902Z,0.51
2024-05-09T08:15:58.964Z,0.53
2024-05-09T08:16:58.914Z,0.52
2024-05-09T08:17:59.165Z,0.52
2024-05-09T08:18:58.983Z,0.53
2024-05-09T08:19:58.941Z,0.52
2024-05-09T08:20:58.913Z,0.50
2024-05-09T08:21:59.028Z,0.52
2024-05-09T08:22:58.948Z,0.51
2024-05-09T08:23:58.971Z,0.52
2024-05-09T08:24:58.968Z,0.52
2024-05-09T08:25:58.950Z,0.51
2024-05-09T08:26:58.958Z,0.52
2024-05-09T08:27:59.045Z,0.52
2024-05-09T08:28:58.990Z,0.52
2024-05-09T08:29:59.079Z,0.52
2024-05-09T08:31:00.014Z,0.51
2024-05-09T08:31:59.136Z,0.51
2024-05-09T08:32:59.096Z,0.51
2024-05-09T08:33:59.117Z,0.51
2024-05-09T08:34:59.075Z,0.51
2024-05-09T08:35:59.026Z,0.52
2024-05-09T08:37:03.905Z,0.51
2024-05-09T08:38:00.236Z,0.51
2024-05-09T08:38:59.064Z,0.51
2024-05-09T08:39:59.140Z,0.51
2024-05-09T08:40:59.082Z,0.51
2024-05-09T08:41:59.081Z,0.52
2024-05-09T08:42:59.174Z,0.51
2024-05-09T08:43:59.073Z,0.51
2024-05-09T08:44:59.104Z,0.51
2024-05-09T08:45:59.118Z,0.52
2024-05-09T08:46:59.083Z,0.52
2024-05-09T08:47:59.289Z,0.50
2024-05-09T08:48:59.299Z,0.52
2024-05-09T08:49:59.213Z,0.52
2024-05-09T08:50:59.111Z,0.52
2024-05-09T08:51:59.224Z,0.52
2024-05-09T08:52:59.152Z,0.50
2024-05-09T08:53:59.152Z,0.52
2024-05-09T08:54:59.180Z,0.52
2024-05-09T08:55:59.166Z,0.51
2024-05-09T08:56:59.165Z,0.50
2024-05-09T08:57:59.279Z,0.52
2024-05-09T08:58:59.200Z,0.52
2024-05-09T08:59:59.208Z,0.51
2024-05-09T09:00:59.311Z,0.51
2024-05-09T09:01:59.311Z,0.50
2024-05-09T09:02:59.282Z,0.51
2024-05-09T09:03:59.321Z,0.51
2024-05-09T09:04:59.353Z,0.52
2024-05-09T09:05:59.313Z,0.51
2024-05-09T09:07:00.447Z,0.51
2024-05-09T09:07:59.353Z,0.52
2024-05-09T09:08:59.346Z,0.51
2024-05-09T09:09:59.416Z,0.51
2024-05-09T09:10:59.374Z,0.52
2024-05-09T09:11:59.426Z,0.52
2024-05-09T09:12:59.440Z,0.52
2024-05-09T09:13:59.382Z,0.52
2024-05-09T09:14:59.395Z,0.51
2024-05-09T09:15:59.735Z,0.52
2024-05-09T09:16:59.405Z,0.52
2024-05-09T09:17:59.736Z,0.52
2024-05-09T09:18:59.541Z,0.52
2024-05-09T09:19:59.539Z,0.52
2024-05-09T09:20:59.412Z,0.52
2024-05-09T09:21:59.478Z,0.52
2024-05-09T09:22:59.449Z,0.52
2024-05-09T09:23:59.466Z,0.52
2024-05-09T09:24:59.489Z,0.52
2024-05-09T09:25:59.451Z,0.50
2024-05-09T09:26:59.460Z,0.51
2024-05-09T09:27:59.677Z,0.50
2024-05-09T09:28:59.461Z,0.51
2024-05-09T09:29:59.483Z,0.51
2024-05-09T09:30:59.577Z,0.51
2024-05-09T09:31:59.642Z,0.50
2024-05-09T09:32:59.817Z,0.52
2024-05-09T09:34:00.019Z,0.51
2024-05-09T09:34:59.927Z,0.51
2024-05-09T09:35:59.909Z,0.50
2024-05-09T09:37:00.008Z,0.51
2024-05-09T09:38:00.056Z,0.52
2024-05-09T09:39:00.067Z,0.52
2024-05-09T09:40:00.106Z,0.52
2024-05-09T09:41:00.283Z,0.52
2024-05-09T09:42:00.079Z,0.52
2024-05-09T09:43:00.175Z,0.52
2024-05-09T09:44:00.098Z,0.52
2024-05-09T09:45:04.901Z,0.51
2024-05-09T09:46:01.095Z,0.52
2024-05-09T09:47:00.105Z,0.52
2024-05-09T09:48:00.140Z,0.52
2024-05-09T09:49:00.165Z,0.52
2024-05-09T09:50:00.132Z,0.51
2024-05-09T09:51:00.086Z,0.52
2024-05-09T09:52:00.165Z,0.52
2024-05-09T09:53:00.105Z,0.53
2024-05-09T09:54:00.132Z,0.51
2024-05-09T09:55:00.255Z,0.52
2024-05-09T09:56:00.307Z,0.53
2024-05-09T09:57:00.330Z,0.52
2024-05-09T09:58:00.490Z,0.51
2024-05-09T09:59:00.466Z,0.52
2024-05-09T10:00:00.539Z,0.52
2024-05-09T10:01:00.841Z,0.52
2024-05-09T10:02:00.941Z,0.51
2024-05-09T10:03:01.348Z,0.52
2024-05-09T10:04:00.897Z,0.51
2024-05-09T10:05:00.984Z,0.52
2024-05-09T10:06:01.008Z,0.51
2024-05-09T10:07:01.093Z,0.52
2024-05-09T10:08:01.106Z,0.51
2024-05-09T10:09:01.185Z,0.52
2024-05-09T10:10:01.313Z,0.51
2024-05-09T10:11:01.418Z,0.52
2024-05-09T10:12:01.509Z,0.52
2024-05-09T10:13:01.677Z,0.51
2024-05-09T10:14:01.574Z,0.52
2024-05-09T10:15:01.660Z,0.52
2024-05-09T10:16:01.738Z,0.51
2024-05-09T10:17:01.855Z,0.52
2024-05-09T10:18:02.048Z,0.51
2024-05-09T10:19:01.999Z,0.50
2024-05-09T10:20:02.045Z,0.52
2024-05-09T10:21:02.070Z,0.52
2024-05-09T10:22:02.175Z,0.51
2024-05-09T10:23:02.215Z,0.52
2024-05-09T10:24:02.373Z,0.52
2024-05-09T10:25:04.746Z,0.52
2024-05-09T10:26:02.628Z,0.51
2024-05-09T10:27:02.687Z,0.51
2024-05-09T10:28:02.875Z,0.54
2024-05-09T10:29:02.834Z,0.51
2024-05-09T10:30:06.835Z,0.51
2024-05-09T10:31:03.997Z,0.52
2024-05-09T10:32:02.938Z,0.52
2024-05-09T10:33:03.145Z,0.52
2024-05-09T10:34:03.610Z,0.52
2024-05-09T10:35:03.161Z,0.52
2024-05-09T10:36:02.947Z,0.53
2024-05-09T10:37:04.966Z,0.52
2024-05-09T10:38:02.959Z,0.53
2024-05-09T10:39:03.019Z,0.52
2024-05-09T10:40:05.458Z,0.52
2024-05-09T10:41:03.099Z,0.52
2024-05-09T10:42:03.136Z,0.52
2024-05-09T10:43:05.835Z,0.52
2024-05-09T10:44:03.125Z,0.52
2024-05-09T10:45:03.153Z,0.52
2024-05-09T10:46:03.298Z,0.52
2024-05-09T10:47:03.160Z,0.52
2024-05-09T10:48:03.494Z,0.52
2024-05-09T10:49:07.049Z,0.52
2024-05-09T10:50:06.027Z,0.52
2024-05-09T10:51:03.182Z,0.52
2024-05-09T10:52:03.222Z,0.52
2024-05-09T10:53:03.251Z,0.52
2024-05-09T10:54:03.180Z,0.52
2024-05-09T10:55:05.617Z,0.52
2024-05-09T10:56:03.194Z,0.52
2024-05-09T10:57:03.192Z,0.52
2024-05-09T10:58:03.242Z,0.53
2024-05-09T10:59:03.206Z,0.52
2024-05-09T11:00:04.972Z,0.52
2024-05-09T11:01:06.590Z,0.52
2024-05-09T11:02:03.347Z,0.52
2024-05-09T11:03:03.326Z,0.52
2024-05-09T11:04:03.612Z,0.52
2024-05-09T11:05:03.436Z,0.52
2024-05-09T11:06:03.280Z,0.53
2024-05-09T11:07:05.397Z,0.52
2024-05-09T11:08:03.295Z,0.52
2024-05-09T11:09:03.302Z,0.53
2024-05-09T11:10:03.497Z,0.52
2024-05-09T11:11:03.391Z,0.51
2024-05-09T11:12:03.522Z,0.52
2024-05-09T11:13:03.614Z,0.51
2024-05-09T11:14:03.577Z,0.51
2024-05-09T11:15:03.654Z,0.51
2024-05-09T11:16:03.819Z,0.52
2024-05-09T11:17:03.791Z,0.52
2024-05-09T11:18:03.923Z,0.51
2024-05-09T11:19:04.166Z,0.51
2024-05-09T11:20:10.463Z,0.51
2024-05-09T11:21:04.945Z,0.51
2024-05-09T11:22:03.965Z,0.51
2024-05-09T11:23:03.954Z,0.51
2024-05-09T11:24:05.996Z,0.51
2024-05-09T11:25:04.034Z,0.51
2024-05-09T11:26:04.088Z,0.52
2024-05-09T11:27:03.979Z,0.51
2024-05-09T11:28:04.062Z,0.51
2024-05-09T11:29:03.999Z,0.51
2024-05-09T11:30:05.647Z,0.51
2024-05-09T11:31:04.030Z,0.51
2024-05-09T11:32:04.082Z,0.51
2024-05-09T11:33:04.080Z,0.51
2024-05-09T11:34:04.085Z,0.52
2024-05-09T11:35:04.046Z,0.51
2024-05-09T11:36:04.105Z,0.50
2024-05-09T11:37:04.125Z,0.51
2024-05-09T11:38:04.023Z,0.51
2024-05-09T11:39:04.040Z,0.51
2024-05-09T11:40:06.833Z,0.50
2024-05-09T11:41:05.089Z,0.50
2024-05-09T11:42:04.041Z,0.50
2024-05-09T11:43:04.124Z,0.50
2024-05-09T11:44:04.088Z,0.50
2024-05-09T11:45:04.071Z,0.50
2024-05-09T11:46:04.407Z,0.50
2024-05-09T11:47:04.091Z,0.50
2024-05-09T11:48:04.254Z,0.51
2024-05-09T11:49:04.256Z,0.51
2024-05-09T11:50:07.725Z,0.52
2024-05-09T11:51:04.103Z,0.51
2024-05-09T11:52:04.204Z,0.50
2024-05-09T11:53:04.094Z,0.51
2024-05-09T11:54:04.122Z,0.51
2024-05-09T11:55:04.261Z,0.51
2024-05-09T11:56:04.274Z,0.51
2024-05-09T11:57:04.131Z,0.52
2024-05-09T11:58:04.308Z,0.50
2024-05-09T11:59:04.176Z,0.51
2024-05-09T12:00:05.592Z,0.51
2024-05-09T12:01:04.284Z,0.51
2024-05-09T12:02:04.290Z,0.51
2024-05-09T12:03:04.261Z,0.51
2024-05-09T12:04:04.604Z,0.51
2024-05-09T12:05:04.344Z,0.51
2024-05-09T12:06:04.432Z,0.52
2024-05-09T12:07:04.198Z,0.51
2024-05-09T12:08:04.191Z,0.51
2024-05-09T12:09:04.230Z,0.51
2024-05-09T12:10:06.230Z,0.51
2024-05-09T12:11:04.346Z,0.51
2024-05-09T12:12:04.190Z,0.51
2024-05-09T12:13:06.178Z,0.51
2024-05-09T12:14:04.185Z,0.51
2024-05-09T12:15:04.200Z,0.51
2024-05-09T12:16:04.223Z,0.51
2024-05-09T12:17:04.242Z,0.51
2024-05-09T12:18:04.596Z,0.51
2024-05-09T12:19:04.346Z,0.50
2024-05-09T12:20:07.094Z,0.51
2024-05-09T12:21:04.208Z,0.51
2024-05-09T12:22:04.287Z,0.51
2024-05-09T12:23:04.205Z,0.51
2024-05-09T12:24:04.397Z,0.51
2024-05-09T12:25:04.295Z,0.51
2024-05-09T12:26:04.222Z,0.50
2024-05-09T12:27:04.224Z,0.51
2024-05-09T12:28:04.474Z,0.51
2024-05-09T12:29:04.251Z,0.50
2024-05-09T12:30:04.666Z,0.51
2024-05-09T12:31:04.301Z,0.51
2024-05-09T12:32:04.257Z,0.51
2024-05-09T12:33:04.522Z,0.51
2024-05-09T12:34:04.378Z,0.50
2024-05-09T12:35:04.229Z,0.50
2024-05-09T12:36:04.231Z,0.50
2024-05-09T12:37:04.252Z,0.50
2024-05-09T12:38:04.322Z,0.50
2024-05-09T12:39:04.239Z,0.50
2024-05-09T12:40:06.700Z,0.50
2024-05-09T12:41:04.343Z,0.50
2024-05-09T12:42:04.243Z,0.50
2024-05-09T12:43:04.624Z,0.50
2024-05-09T12:44:04.246Z,0.50
2024-05-09T12:45:04.258Z,0.50
2024-05-09T12:46:04.452Z,0.50
2024-05-09T12:47:04.245Z,0.51
2024-05-09T12:48:04.477Z,0.51
2024-05-09T12:49:04.611Z,0.50
2024-05-09T12:50:06.431Z,0.50
2024-05-09T12:51:04.257Z,0.50
2024-05-09T12:52:04.313Z,0.50
2024-05-09T12:53:04.976Z,0.50
2024-05-09T12:54:04.264Z,0.50
2024-05-09T12:55:04.274Z,0.50
2024-05-09T12:56:05.474Z,0.50
2024-05-09T12:57:04.231Z,0.50
2024-05-09T12:58:04.256Z,0.50
2024-05-09T12:59:04.277Z,0.51
2024-05-09T13:00:04.333Z,0.51
2024-05-09T13:01:04.293Z,0.51
2024-05-09T13:02:04.460Z,0.51
2024-05-09T13:03:04.299Z,0.50
2024-05-09T13:04:04.581Z,0.51
2024-05-09T13:05:04.529Z,0.51
2024-05-09T13:06:04.219Z,0.51
2024-05-09T13:07:07.355Z,0.51
2024-05-09T13:08:04.220Z,0.51
2024-05-09T13:09:04.247Z,0.51
2024-05-09T13:10:04.717Z,0.51
2024-05-09T13:11:04.226Z,0.51
2024-05-09T13:12:04.208Z,0.51
2024-05-09T13:13:04.347Z,0.51
2024-05-09T13:14:04.229Z,0.51
2024-05-09T13:15:04.216Z,0.51
2024-05-09T13:16:04.326Z,0.51
2024-05-09T13:17:04.337Z,0.51
2024-05-09T13:18:04.394Z,0.51
2024-05-09T13:19:04.296Z,0.51
2024-05-09T13:20:05.528Z,0.51
2024-05-09T13:21:04.209Z,0.51
2024-05-09T13:22:04.286Z,0.51
2024-05-09T13:23:04.857Z,0.51